sensor_id;sensor_type;location;lat;lon;timestamp;P1;durP1;ratioP1;P2;durP2;ratioP2
22250;SDS011;59348;52.158;5.588;2023-05-19T00:01:41;8.10;;;3.95;;
22250;SDS011;59348;52.158;5.588;2023-05-19T00:04:09;12.23;;;4.28;;
22250;SDS011;59348;52.158;5.588;2023-05-19T00:06:38;10.13;;;4.50;;
22250;SDS011;59348;52.158;5.588;2023-05-19T00:09:07;12.70;;;4.28;;
22250;SDS011;59348;52.158;5.588;2023-05-19T00:11:35;11.57;;;4.03;;
22250;SDS011;59348;52.158;5.588;2023-05-19T00:14:03;7.55;;;4.03;;
22250;SDS011;59348;52.158;5.588;2023-05-19T00:16:32;11.77;;;4.60;;
22250;SDS011;59348;52.158;5.588;2023-05-19T00:19:01;11.27;;;4.47;;
22250;SDS011;59348;52.158;5.588;2023-05-19T00:21:28;12.45;;;4.65;;
22250;SDS011;59348;52.158;5.588;2023-05-19T00:23:56;11.35;;;4.00;;
22250;SDS011;59348;52.158;5.588;2023-05-19T00:26:25;15.27;;;4.57;;
22250;SDS011;59348;52.158;5.588;2023-05-19T00:28:52;11.00;;;4.55;;
22250;SDS011;59348;52.158;5.588;2023-05-19T00:31:20;10.65;;;4.22;;
22250;SDS011;59348;52.158;5.588;2023-05-19T00:33:48;10.80;;;4.32;;
22250;SDS011;59348;52.158;5.588;2023-05-19T00:36:16;8.88;;;4.07;;
22250;SDS011;59348;52.158;5.588;2023-05-19T00:38:43;13.25;;;4.70;;
22250;SDS011;59348;52.158;5.588;2023-05-19T00:41:10;11.20;;;4.55;;
22250;SDS011;59348;52.158;5.588;2023-05-19T00:43:37;11.18;;;4.60;;
22250;SDS011;59348;52.158;5.588;2023-05-19T00:46:05;11.13;;;4.60;;
22250;SDS011;59348;52.158;5.588;2023-05-19T00:48:32;14.48;;;4.78;;
22250;SDS011;59348;52.158;5.588;2023-05-19T00:51:00;13.15;;;4.28;;
22250;SDS011;59348;52.158;5.588;2023-05-19T00:53:30;12.32;;;4.45;;
22250;SDS011;59348;52.158;5.588;2023-05-19T00:55:58;12.05;;;4.82;;
22250;SDS011;59348;52.158;5.588;2023-05-19T00:58:26;15.05;;;4.85;;
22250;SDS011;59348;52.158;5.588;2023-05-19T01:00:54;10.77;;;5.00;;
22250;SDS011;59348;52.158;5.588;2023-05-19T01:03:27;11.88;;;4.28;;
22250;SDS011;59348;52.158;5.588;2023-05-19T01:05:55;10.25;;;4.47;;
22250;SDS011;59348;52.158;5.588;2023-05-19T01:08:27;12.57;;;4.43;;
22250;SDS011;59348;52.158;5.588;2023-05-19T01:10:57;8.68;;;4.38;;
22250;SDS011;59348;52.158;5.588;2023-05-19T01:13:24;9.13;;;4.30;;
22250;SDS011;59348;52.158;5.588;2023-05-19T01:15:55;11.57;;;4.95;;
22250;SDS011;59348;52.158;5.588;2023-05-19T01:18:24;12.60;;;4.85;;
22250;SDS011;59348;52.158;5.588;2023-05-19T01:20:57;12.23;;;4.95;;
22250;SDS011;59348;52.158;5.588;2023-05-19T01:23:29;13.65;;;5.13;;
22250;SDS011;59348;52.158;5.588;2023-05-19T01:28:49;12.88;;;4.63;;
22250;SDS011;59348;52.158;5.588;2023-05-19T01:31:20;12.85;;;5.68;;
22250;SDS011;59348;52.158;5.588;2023-05-19T01:33:48;11.85;;;5.60;;
22250;SDS011;59348;52.158;5.588;2023-05-19T01:36:17;10.27;;;5.50;;
22250;SDS011;59348;52.158;5.588;2023-05-19T01:38:48;13.82;;;5.10;;
22250;SDS011;59348;52.158;5.588;2023-05-19T01:41:15;12.77;;;5.22;;
22250;SDS011;59348;52.158;5.588;2023-05-19T01:43:44;10.82;;;5.40;;
22250;SDS011;59348;52.158;5.588;2023-05-19T01:46:11;13.50;;;5.57;;
22250;SDS011;59348;52.158;5.588;2023-05-19T01:48:40;14.30;;;5.55;;
22250;SDS011;59348;52.158;5.588;2023-05-19T01:51:07;11.35;;;4.97;;
22250;SDS011;59348;52.158;5.588;2023-05-19T01:53:34;13.80;;;5.30;;
22250;SDS011;59348;52.158;5.588;2023-05-19T01:56:04;11.68;;;5.30;;
22250;SDS011;59348;52.158;5.588;2023-05-19T01:58:34;9.13;;;5.10;;
22250;SDS011;59348;52.158;5.588;2023-05-19T02:01:06;13.05;;;5.25;;
22250;SDS011;59348;52.158;5.588;2023-05-19T02:03:41;12.07;;;4.95;;
22250;SDS011;59348;52.158;5.588;2023-05-19T02:06:14;11.90;;;4.75;;
22250;SDS011;59348;52.158;5.588;2023-05-19T02:08:46;9.48;;;4.90;;
22250;SDS011;59348;52.158;5.588;2023-05-19T02:11:18;15.02;;;5.10;;
22250;SDS011;59348;52.158;5.588;2023-05-19T02:13:49;11.35;;;4.57;;
22250;SDS011;59348;52.158;5.588;2023-05-19T02:16:16;11.52;;;4.80;;
22250;SDS011;59348;52.158;5.588;2023-05-19T02:18:45;10.73;;;4.75;;
22250;SDS011;59348;52.158;5.588;2023-05-19T02:21:12;11.27;;;5.10;;
22250;SDS011;59348;52.158;5.588;2023-05-19T02:23:40;11.40;;;4.78;;
22250;SDS011;59348;52.158;5.588;2023-05-19T02:26:07;13.23;;;5.10;;
22250;SDS011;59348;52.158;5.588;2023-05-19T02:28:35;12.48;;;5.65;;
22250;SDS011;59348;52.158;5.588;2023-05-19T02:31:02;14.27;;;5.57;;
22250;SDS011;59348;52.158;5.588;2023-05-19T02:33:33;12.13;;;5.30;;
22250;SDS011;59348;52.158;5.588;2023-05-19T02:36:02;11.40;;;5.30;;
22250;SDS011;59348;52.158;5.588;2023-05-19T02:38:30;9.95;;;5.10;;
22250;SDS011;59348;52.158;5.588;2023-05-19T02:40:57;11.75;;;5.13;;
22250;SDS011;59348;52.158;5.588;2023-05-19T02:43:24;13.10;;;5.32;;
22250;SDS011;59348;52.158;5.588;2023-05-19T02:45:54;12.65;;;5.38;;
22250;SDS011;59348;52.158;5.588;2023-05-19T02:48:21;14.45;;;5.25;;
22250;SDS011;59348;52.158;5.588;2023-05-19T02:50:50;13.73;;;5.70;;
22250;SDS011;59348;52.158;5.588;2023-05-19T02:53:18;12.05;;;5.68;;
22250;SDS011;59348;52.158;5.588;2023-05-19T02:55:45;10.63;;;5.18;;
22250;SDS011;59348;52.158;5.588;2023-05-19T02:58:13;12.80;;;5.68;;
22250;SDS011;59348;52.158;5.588;2023-05-19T03:00:40;11.73;;;5.47;;
22250;SDS011;59348;52.158;5.588;2023-05-19T03:03:09;12.20;;;6.20;;
22250;SDS011;59348;52.158;5.588;2023-05-19T03:05:37;11.27;;;5.82;;
22250;SDS011;59348;52.158;5.588;2023-05-19T03:08:05;12.25;;;5.90;;
22250;SDS011;59348;52.158;5.588;2023-05-19T03:10:33;10.82;;;5.57;;
22250;SDS011;59348;52.158;5.588;2023-05-19T03:13:00;11.30;;;6.15;;
22250;SDS011;59348;52.158;5.588;2023-05-19T03:15:27;11.00;;;6.15;;
22250;SDS011;59348;52.158;5.588;2023-05-19T03:17:55;13.90;;;6.10;;
22250;SDS011;59348;52.158;5.588;2023-05-19T03:20:22;14.00;;;6.30;;
22250;SDS011;59348;52.158;5.588;2023-05-19T03:22:49;12.98;;;5.88;;
22250;SDS011;59348;52.158;5.588;2023-05-19T03:25:17;10.68;;;6.25;;
22250;SDS011;59348;52.158;5.588;2023-05-19T03:27:45;14.25;;;6.38;;
22250;SDS011;59348;52.158;5.588;2023-05-19T03:30:12;13.57;;;6.45;;
22250;SDS011;59348;52.158;5.588;2023-05-19T03:32:40;19.35;;;6.82;;
22250;SDS011;59348;52.158;5.588;2023-05-19T03:35:07;11.95;;;6.82;;
22250;SDS011;59348;52.158;5.588;2023-05-19T03:37:35;14.13;;;6.10;;
22250;SDS011;59348;52.158;5.588;2023-05-19T03:40:02;14.13;;;7.10;;
22250;SDS011;59348;52.158;5.588;2023-05-19T03:42:30;13.65;;;6.10;;
22250;SDS011;59348;52.158;5.588;2023-05-19T03:44:58;11.63;;;6.38;;
22250;SDS011;59348;52.158;5.588;2023-05-19T03:47:25;13.57;;;6.93;;
22250;SDS011;59348;52.158;5.588;2023-05-19T03:49:53;14.77;;;6.55;;
22250;SDS011;59348;52.158;5.588;2023-05-19T03:52:20;14.85;;;7.03;;
22250;SDS011;59348;52.158;5.588;2023-05-19T03:54:47;15.75;;;7.18;;
22250;SDS011;59348;52.158;5.588;2023-05-19T03:57:15;12.57;;;7.07;;
22250;SDS011;59348;52.158;5.588;2023-05-19T03:59:42;14.43;;;6.78;;
22250;SDS011;59348;52.158;5.588;2023-05-19T04:02:13;11.77;;;6.90;;
22250;SDS011;59348;52.158;5.588;2023-05-19T04:04:41;14.60;;;7.00;;
22250;SDS011;59348;52.158;5.588;2023-05-19T04:07:08;14.70;;;7.00;;
22250;SDS011;59348;52.158;5.588;2023-05-19T04:09:35;16.80;;;7.15;;
22250;SDS011;59348;52.158;5.588;2023-05-19T04:12:03;17.35;;;7.80;;
22250;SDS011;59348;52.158;5.588;2023-05-19T04:14:30;14.90;;;7.30;;
22250;SDS011;59348;52.158;5.588;2023-05-19T04:16:57;16.88;;;7.18;;
22250;SDS011;59348;52.158;5.588;2023-05-19T04:19:26;13.60;;;6.90;;
22250;SDS011;59348;52.158;5.588;2023-05-19T04:21:53;17.27;;;7.25;;
22250;SDS011;59348;52.158;5.588;2023-05-19T04:24:21;13.70;;;7.47;;
22250;SDS011;59348;52.158;5.588;2023-05-19T04:26:48;14.23;;;7.45;;
22250;SDS011;59348;52.158;5.588;2023-05-19T04:29:16;19.50;;;7.45;;
22250;SDS011;59348;52.158;5.588;2023-05-19T04:31:43;22.20;;;7.32;;
22250;SDS011;59348;52.158;5.588;2023-05-19T04:34:10;12.73;;;6.97;;
22250;SDS011;59348;52.158;5.588;2023-05-19T04:36:39;14.63;;;7.22;;
22250;SDS011;59348;52.158;5.588;2023-05-19T04:39:06;15.15;;;7.18;;
22250;SDS011;59348;52.158;5.588;2023-05-19T04:41:36;15.43;;;7.50;;
22250;SDS011;59348;52.158;5.588;2023-05-19T04:44:04;16.67;;;7.47;;
22250;SDS011;59348;52.158;5.588;2023-05-19T04:46:33;13.68;;;8.02;;
22250;SDS011;59348;52.158;5.588;2023-05-19T04:49:00;14.82;;;7.68;;
22250;SDS011;59348;52.158;5.588;2023-05-19T04:51:27;17.52;;;7.80;;
22250;SDS011;59348;52.158;5.588;2023-05-19T04:53:56;14.50;;;7.80;;
22250;SDS011;59348;52.158;5.588;2023-05-19T04:56:24;16.67;;;8.35;;
22250;SDS011;59348;52.158;5.588;2023-05-19T04:58:52;18.08;;;8.07;;
22250;SDS011;59348;52.158;5.588;2023-05-19T05:01:20;13.15;;;7.85;;
22250;SDS011;59348;52.158;5.588;2023-05-19T05:03:49;16.10;;;8.55;;
22250;SDS011;59348;52.158;5.588;2023-05-19T05:06:19;14.20;;;8.20;;
22250;SDS011;59348;52.158;5.588;2023-05-19T05:08:46;15.57;;;8.50;;
22250;SDS011;59348;52.158;5.588;2023-05-19T05:11:15;12.65;;;8.25;;
22250;SDS011;59348;52.158;5.588;2023-05-19T05:13:43;17.27;;;8.93;;
22250;SDS011;59348;52.158;5.588;2023-05-19T05:16:10;20.48;;;8.95;;
22250;SDS011;59348;52.158;5.588;2023-05-19T05:18:38;17.85;;;8.70;;
22250;SDS011;59348;52.158;5.588;2023-05-19T05:21:07;14.95;;;8.90;;
22250;SDS011;59348;52.158;5.588;2023-05-19T05:23:35;18.80;;;8.80;;
22250;SDS011;59348;52.158;5.588;2023-05-19T05:26:06;16.40;;;8.68;;
22250;SDS011;59348;52.158;5.588;2023-05-19T05:28:37;15.85;;;8.85;;
22250;SDS011;59348;52.158;5.588;2023-05-19T05:31:04;14.85;;;9.13;;
22250;SDS011;59348;52.158;5.588;2023-05-19T05:33:31;14.43;;;8.30;;
22250;SDS011;59348;52.158;5.588;2023-05-19T05:35:58;15.73;;;8.43;;
22250;SDS011;59348;52.158;5.588;2023-05-19T05:38:25;13.40;;;8.23;;
22250;SDS011;59348;52.158;5.588;2023-05-19T05:40:53;16.27;;;8.52;;
22250;SDS011;59348;52.158;5.588;2023-05-19T05:43:20;19.30;;;8.18;;
22250;SDS011;59348;52.158;5.588;2023-05-19T05:45:50;14.90;;;8.27;;
22250;SDS011;59348;52.158;5.588;2023-05-19T05:48:17;15.88;;;8.25;;
22250;SDS011;59348;52.158;5.588;2023-05-19T05:50:44;14.77;;;8.27;;
22250;SDS011;59348;52.158;5.588;2023-05-19T05:53:12;14.23;;;8.10;;
22250;SDS011;59348;52.158;5.588;2023-05-19T05:55:42;11.63;;;7.80;;
22250;SDS011;59348;52.158;5.588;2023-05-19T05:58:10;17.20;;;8.50;;
22250;SDS011;59348;52.158;5.588;2023-05-19T06:00:39;13.82;;;7.43;;
22250;SDS011;59348;52.158;5.588;2023-05-19T06:03:09;15.82;;;7.93;;
22250;SDS011;59348;52.158;5.588;2023-05-19T06:05:37;12.23;;;7.43;;
22250;SDS011;59348;52.158;5.588;2023-05-19T06:08:04;16.90;;;7.93;;
22250;SDS011;59348;52.158;5.588;2023-05-19T06:10:31;19.02;;;7.88;;
22250;SDS011;59348;52.158;5.588;2023-05-19T06:12:59;11.38;;;6.93;;
22250;SDS011;59348;52.158;5.588;2023-05-19T06:15:27;14.25;;;7.47;;
22250;SDS011;59348;52.158;5.588;2023-05-19T06:17:54;12.10;;;7.22;;
22250;SDS011;59348;52.158;5.588;2023-05-19T06:20:23;10.85;;;6.80;;
22250;SDS011;59348;52.158;5.588;2023-05-19T06:22:50;13.30;;;7.07;;
22250;SDS011;59348;52.158;5.588;2023-05-19T06:25:18;13.52;;;7.05;;
22250;SDS011;59348;52.158;5.588;2023-05-19T06:27:45;15.38;;;6.20;;
22250;SDS011;59348;52.158;5.588;2023-05-19T06:30:13;10.20;;;6.53;;
22250;SDS011;59348;52.158;5.588;2023-05-19T06:32:41;12.25;;;6.47;;
22250;SDS011;59348;52.158;5.588;2023-05-19T06:35:08;12.90;;;5.93;;
22250;SDS011;59348;52.158;5.588;2023-05-19T06:37:37;12.65;;;6.45;;
22250;SDS011;59348;52.158;5.588;2023-05-19T06:40:04;11.65;;;6.43;;
22250;SDS011;59348;52.158;5.588;2023-05-19T06:42:32;9.30;;;5.72;;
22250;SDS011;59348;52.158;5.588;2023-05-19T06:45:00;11.52;;;5.80;;
22250;SDS011;59348;52.158;5.588;2023-05-19T06:47:27;17.13;;;6.28;;
22250;SDS011;59348;52.158;5.588;2023-05-19T06:49:55;13.70;;;5.45;;
22250;SDS011;59348;52.158;5.588;2023-05-19T06:52:23;14.75;;;5.60;;
22250;SDS011;59348;52.158;5.588;2023-05-19T06:54:52;8.77;;;5.30;;
22250;SDS011;59348;52.158;5.588;2023-05-19T06:57:19;11.98;;;5.13;;
22250;SDS011;59348;52.158;5.588;2023-05-19T06:59:46;9.95;;;5.03;;
22250;SDS011;59348;52.158;5.588;2023-05-19T07:02:13;12.13;;;5.00;;
22250;SDS011;59348;52.158;5.588;2023-05-19T07:04:41;14.50;;;4.88;;
22250;SDS011;59348;52.158;5.588;2023-05-19T07:07:09;7.53;;;3.97;;
22250;SDS011;59348;52.158;5.588;2023-05-19T07:09:36;12.05;;;4.60;;
22250;SDS011;59348;52.158;5.588;2023-05-19T07:12:05;9.27;;;4.28;;
22250;SDS011;59348;52.158;5.588;2023-05-19T07:14:32;8.00;;;4.07;;
22250;SDS011;59348;52.158;5.588;2023-05-19T07:17:00;10.07;;;4.35;;
22250;SDS011;59348;52.158;5.588;2023-05-19T07:19:29;13.10;;;3.70;;
22250;SDS011;59348;52.158;5.588;2023-05-19T07:21:57;9.73;;;3.90;;
22250;SDS011;59348;52.158;5.588;2023-05-19T07:24:24;8.50;;;3.80;;
22250;SDS011;59348;52.158;5.588;2023-05-19T07:26:52;9.30;;;3.50;;
22250;SDS011;59348;52.158;5.588;2023-05-19T07:29:20;7.93;;;3.17;;
22250;SDS011;59348;52.158;5.588;2023-05-19T07:31:48;9.82;;;3.33;;
22250;SDS011;59348;52.158;5.588;2023-05-19T07:34:18;7.43;;;3.20;;
22250;SDS011;59348;52.158;5.588;2023-05-19T07:36:46;8.30;;;3.00;;
22250;SDS011;59348;52.158;5.588;2023-05-19T07:39:13;9.52;;;3.30;;
22250;SDS011;59348;52.158;5.588;2023-05-19T07:41:40;5.22;;;2.45;;
22250;SDS011;59348;52.158;5.588;2023-05-19T07:44:07;9.07;;;2.60;;
22250;SDS011;59348;52.158;5.588;2023-05-19T07:46:36;8.35;;;2.63;;
22250;SDS011;59348;52.158;5.588;2023-05-19T07:49:03;10.00;;;2.80;;
22250;SDS011;59348;52.158;5.588;2023-05-19T07:51:31;7.97;;;2.35;;
22250;SDS011;59348;52.158;5.588;2023-05-19T07:53:58;8.52;;;2.42;;
22250;SDS011;59348;52.158;5.588;2023-05-19T07:56:25;6.50;;;2.35;;
22250;SDS011;59348;52.158;5.588;2023-05-19T07:58:53;7.22;;;2.33;;
22250;SDS011;59348;52.158;5.588;2023-05-19T08:01:21;12.18;;;2.65;;
22250;SDS011;59348;52.158;5.588;2023-05-19T08:03:51;6.30;;;2.35;;
22250;SDS011;59348;52.158;5.588;2023-05-19T08:06:18;5.57;;;2.20;;
22250;SDS011;59348;52.158;5.588;2023-05-19T08:08:46;5.38;;;2.10;;
22250;SDS011;59348;52.158;5.588;2023-05-19T08:11:13;9.52;;;2.40;;
22250;SDS011;59348;52.158;5.588;2023-05-19T08:13:40;4.95;;;2.03;;
22250;SDS011;59348;52.158;5.588;2023-05-19T08:16:09;7.03;;;2.03;;
22250;SDS011;59348;52.158;5.588;2023-05-19T08:18:36;8.50;;;2.38;;
22250;SDS011;59348;52.158;5.588;2023-05-19T08:21:05;4.57;;;2.10;;
22250;SDS011;59348;52.158;5.588;2023-05-19T08:23:32;6.35;;;2.25;;
22250;SDS011;59348;52.158;5.588;2023-05-19T08:26:02;9.00;;;2.30;;
22250;SDS011;59348;52.158;5.588;2023-05-19T08:28:29;5.45;;;1.92;;
22250;SDS011;59348;52.158;5.588;2023-05-19T08:30:57;7.78;;;2.10;;
22250;SDS011;59348;52.158;5.588;2023-05-19T08:33:24;6.60;;;2.03;;
22250;SDS011;59348;52.158;5.588;2023-05-19T08:35:52;6.15;;;1.95;;
22250;SDS011;59348;52.158;5.588;2023-05-19T08:38:21;5.93;;;2.50;;
22250;SDS011;59348;52.158;5.588;2023-05-19T08:40:48;4.38;;;2.00;;
22250;SDS011;59348;52.158;5.588;2023-05-19T08:43:15;5.68;;;2.30;;
22250;SDS011;59348;52.158;5.588;2023-05-19T08:45:44;5.72;;;2.30;;
22250;SDS011;59348;52.158;5.588;2023-05-19T08:48:12;8.25;;;2.30;;
22250;SDS011;59348;52.158;5.588;2023-05-19T08:50:39;8.43;;;2.33;;
22250;SDS011;59348;52.158;5.588;2023-05-19T08:53:09;5.95;;;2.22;;
22250;SDS011;59348;52.158;5.588;2023-05-19T08:55:41;7.10;;;2.70;;
22250;SDS011;59348;52.158;5.588;2023-05-19T08:58:09;10.13;;;2.40;;
22250;SDS011;59348;52.158;5.588;2023-05-19T09:00:37;7.28;;;2.35;;
22250;SDS011;59348;52.158;5.588;2023-05-19T09:03:04;6.00;;;2.42;;
22250;SDS011;59348;52.158;5.588;2023-05-19T09:05:32;7.75;;;2.40;;
22250;SDS011;59348;52.158;5.588;2023-05-19T09:07:59;12.00;;;2.75;;
22250;SDS011;59348;52.158;5.588;2023-05-19T09:10:29;6.57;;;2.65;;
22250;SDS011;59348;52.158;5.588;2023-05-19T09:12:58;7.00;;;2.50;;
22250;SDS011;59348;52.158;5.588;2023-05-19T09:15:25;8.68;;;2.35;;
22250;SDS011;59348;52.158;5.588;2023-05-19T09:18:01;7.95;;;2.67;;
22250;SDS011;59348;52.158;5.588;2023-05-19T09:20:29;10.27;;;2.50;;
22250;SDS011;59348;52.158;5.588;2023-05-19T09:22:56;10.80;;;2.65;;
22250;SDS011;59348;52.158;5.588;2023-05-19T09:25:25;6.93;;;2.50;;
22250;SDS011;59348;52.158;5.588;2023-05-19T09:27:53;6.68;;;2.67;;
22250;SDS011;59348;52.158;5.588;2023-05-19T09:30:24;8.77;;;2.33;;
22250;SDS011;59348;52.158;5.588;2023-05-19T09:32:51;6.57;;;2.40;;
22250;SDS011;59348;52.158;5.588;2023-05-19T09:35:18;7.05;;;2.22;;
22250;SDS011;59348;52.158;5.588;2023-05-19T09:37:46;8.77;;;2.63;;
22250;SDS011;59348;52.158;5.588;2023-05-19T09:40:13;8.77;;;2.63;;
22250;SDS011;59348;52.158;5.588;2023-05-19T09:42:41;7.05;;;2.70;;
22250;SDS011;59348;52.158;5.588;2023-05-19T09:45:09;7.00;;;2.67;;
22250;SDS011;59348;52.158;5.588;2023-05-19T09:47:38;7.85;;;2.60;;
22250;SDS011;59348;52.158;5.588;2023-05-19T09:50:08;8.52;;;2.78;;
22250;SDS011;59348;52.158;5.588;2023-05-19T09:52:36;6.32;;;2.45;;
22250;SDS011;59348;52.158;5.588;2023-05-19T09:55:03;9.43;;;2.88;;
22250;SDS011;59348;52.158;5.588;2023-05-19T09:57:32;5.82;;;2.47;;
22250;SDS011;59348;52.158;5.588;2023-05-19T10:00:01;7.90;;;2.60;;
22250;SDS011;59348;52.158;5.588;2023-05-19T10:02:35;6.97;;;2.72;;
22250;SDS011;59348;52.158;5.588;2023-05-19T10:05:04;7.78;;;2.63;;
22250;SDS011;59348;52.158;5.588;2023-05-19T10:07:32;6.28;;;2.78;;
22250;SDS011;59348;52.158;5.588;2023-05-19T10:09:59;7.63;;;2.35;;
22250;SDS011;59348;52.158;5.588;2023-05-19T10:12:26;8.23;;;2.35;;
22250;SDS011;59348;52.158;5.588;2023-05-19T10:14:53;7.85;;;2.47;;
22250;SDS011;59348;52.158;5.588;2023-05-19T10:17:21;10.63;;;3.08;;
22250;SDS011;59348;52.158;5.588;2023-05-19T10:19:50;8.25;;;2.55;;
22250;SDS011;59348;52.158;5.588;2023-05-19T10:22:21;6.30;;;2.60;;
22250;SDS011;59348;52.158;5.588;2023-05-19T10:24:48;8.75;;;2.50;;
22250;SDS011;59348;52.158;5.588;2023-05-19T10:27:15;6.10;;;2.42;;
22250;SDS011;59348;52.158;5.588;2023-05-19T10:29:46;9.07;;;2.70;;
22250;SDS011;59348;52.158;5.588;2023-05-19T10:32:17;6.43;;;2.40;;
22250;SDS011;59348;52.158;5.588;2023-05-19T10:34:52;7.20;;;2.22;;
22250;SDS011;59348;52.158;5.588;2023-05-19T10:37:25;8.95;;;2.20;;
22250;SDS011;59348;52.158;5.588;2023-05-19T10:39:57;9.90;;;2.40;;
22250;SDS011;59348;52.158;5.588;2023-05-19T10:42:27;7.07;;;2.45;;
22250;SDS011;59348;52.158;5.588;2023-05-19T10:45:01;5.18;;;2.42;;
22250;SDS011;59348;52.158;5.588;2023-05-19T10:47:32;6.50;;;2.60;;
22250;SDS011;59348;52.158;5.588;2023-05-19T10:49:59;6.03;;;2.60;;
22250;SDS011;59348;52.158;5.588;2023-05-19T10:52:28;8.02;;;2.65;;
22250;SDS011;59348;52.158;5.588;2023-05-19T10:54:57;6.35;;;2.15;;
22250;SDS011;59348;52.158;5.588;2023-05-19T10:57:24;6.65;;;2.33;;
22250;SDS011;59348;52.158;5.588;2023-05-19T10:59:52;5.82;;;2.40;;
22250;SDS011;59348;52.158;5.588;2023-05-19T11:05:07;5.72;;;2.50;;
22250;SDS011;59348;52.158;5.588;2023-05-19T11:07:36;11.20;;;2.50;;
22250;SDS011;59348;52.158;5.588;2023-05-19T11:10:07;6.82;;;2.55;;
22250;SDS011;59348;52.158;5.588;2023-05-19T11:12:43;8.23;;;2.55;;
22250;SDS011;59348;52.158;5.588;2023-05-19T11:15:11;8.82;;;2.20;;
22250;SDS011;59348;52.158;5.588;2023-05-19T11:17:39;6.13;;;2.28;;
22250;SDS011;59348;52.158;5.588;2023-05-19T11:20:07;6.38;;;2.47;;
22250;SDS011;59348;52.158;5.588;2023-05-19T11:22:37;6.38;;;2.47;;
22250;SDS011;59348;52.158;5.588;2023-05-19T11:25:06;5.65;;;2.40;;
22250;SDS011;59348;52.158;5.588;2023-05-19T11:27:34;6.55;;;2.33;;
22250;SDS011;59348;52.158;5.588;2023-05-19T11:30:07;7.30;;;2.40;;
22250;SDS011;59348;52.158;5.588;2023-05-19T11:32:38;6.28;;;2.40;;
22250;SDS011;59348;52.158;5.588;2023-05-19T11:35:06;6.40;;;2.13;;
22250;SDS011;59348;52.158;5.588;2023-05-19T11:37:34;5.88;;;2.20;;
22250;SDS011;59348;52.158;5.588;2023-05-19T11:40:03;7.78;;;2.40;;
22250;SDS011;59348;52.158;5.588;2023-05-19T11:42:32;5.40;;;2.25;;
22250;SDS011;59348;52.158;5.588;2023-05-19T11:45:00;5.80;;;2.15;;
22250;SDS011;59348;52.158;5.588;2023-05-19T11:47:29;8.43;;;2.40;;
22250;SDS011;59348;52.158;5.588;2023-05-19T11:49:57;6.93;;;2.22;;
22250;SDS011;59348;52.158;5.588;2023-05-19T11:52:25;7.97;;;2.35;;
22250;SDS011;59348;52.158;5.588;2023-05-19T11:54:53;6.07;;;2.50;;
22250;SDS011;59348;52.158;5.588;2023-05-19T11:57:23;8.63;;;2.70;;
22250;SDS011;59348;52.158;5.588;2023-05-19T11:59:50;4.15;;;2.38;;
22250;SDS011;59348;52.158;5.588;2023-05-19T12:02:21;9.80;;;2.70;;
22250;SDS011;59348;52.158;5.588;2023-05-19T12:04:50;6.50;;;2.20;;
22250;SDS011;59348;52.158;5.588;2023-05-19T12:07:17;8.98;;;2.58;;
22250;SDS011;59348;52.158;5.588;2023-05-19T12:09:47;5.90;;;2.70;;
22250;SDS011;59348;52.158;5.588;2023-05-19T12:12:15;44.35;;;5.38;;
22250;SDS011;59348;52.158;5.588;2023-05-19T12:14:44;9.60;;;2.63;;
22250;SDS011;59348;52.158;5.588;2023-05-19T12:17:12;5.65;;;2.72;;
22250;SDS011;59348;52.158;5.588;2023-05-19T12:19:40;6.13;;;2.55;;
22250;SDS011;59348;52.158;5.588;2023-05-19T12:22:08;7.80;;;2.38;;
22250;SDS011;59348;52.158;5.588;2023-05-19T12:24:36;7.22;;;2.35;;
22250;SDS011;59348;52.158;5.588;2023-05-19T12:27:04;5.80;;;2.15;;
22250;SDS011;59348;52.158;5.588;2023-05-19T12:29:32;6.28;;;2.42;;
22250;SDS011;59348;52.158;5.588;2023-05-19T12:32:01;5.15;;;2.30;;
22250;SDS011;59348;52.158;5.588;2023-05-19T12:34:28;4.97;;;2.28;;
22250;SDS011;59348;52.158;5.588;2023-05-19T12:36:56;9.88;;;2.38;;
22250;SDS011;59348;52.158;5.588;2023-05-19T12:39:23;6.65;;;2.20;;
22250;SDS011;59348;52.158;5.588;2023-05-19T12:41:52;6.32;;;2.75;;
22250;SDS011;59348;52.158;5.588;2023-05-19T12:44:27;8.48;;;2.50;;
22250;SDS011;59348;52.158;5.588;2023-05-19T12:46:55;6.72;;;2.50;;
22250;SDS011;59348;52.158;5.588;2023-05-19T12:49:24;5.45;;;2.40;;
22250;SDS011;59348;52.158;5.588;2023-05-19T12:51:52;5.13;;;2.00;;
22250;SDS011;59348;52.158;5.588;2023-05-19T12:54:19;6.07;;;2.30;;
22250;SDS011;59348;52.158;5.588;2023-05-19T12:56:48;3.97;;;2.30;;
22250;SDS011;59348;52.158;5.588;2023-05-19T12:59:19;5.03;;;2.15;;
22250;SDS011;59348;52.158;5.588;2023-05-19T13:01:53;8.93;;;2.65;;
22250;SDS011;59348;52.158;5.588;2023-05-19T13:04:21;4.22;;;2.30;;
22250;SDS011;59348;52.158;5.588;2023-05-19T13:06:49;6.13;;;2.30;;
22250;SDS011;59348;52.158;5.588;2023-05-19T13:09:17;4.68;;;2.17;;
22250;SDS011;59348;52.158;5.588;2023-05-19T13:11:45;6.20;;;2.40;;
22250;SDS011;59348;52.158;5.588;2023-05-19T13:14:15;6.93;;;2.45;;
22250;SDS011;59348;52.158;5.588;2023-05-19T13:16:43;5.60;;;2.47;;
22250;SDS011;59348;52.158;5.588;2023-05-19T13:19:11;5.15;;;2.55;;
22250;SDS011;59348;52.158;5.588;2023-05-19T13:21:39;5.15;;;2.35;;
22250;SDS011;59348;52.158;5.588;2023-05-19T13:24:08;4.90;;;2.20;;
22250;SDS011;59348;52.158;5.588;2023-05-19T13:26:35;5.22;;;2.33;;
22250;SDS011;59348;52.158;5.588;2023-05-19T13:29:03;8.60;;;2.30;;
22250;SDS011;59348;52.158;5.588;2023-05-19T13:31:30;5.25;;;2.22;;
22250;SDS011;59348;52.158;5.588;2023-05-19T13:33:57;6.05;;;2.35;;
22250;SDS011;59348;52.158;5.588;2023-05-19T13:36:25;6.43;;;2.40;;
22250;SDS011;59348;52.158;5.588;2023-05-19T13:38:52;8.10;;;2.60;;
22250;SDS011;59348;52.158;5.588;2023-05-19T13:41:23;5.22;;;2.47;;
22250;SDS011;59348;52.158;5.588;2023-05-19T13:43:51;7.20;;;2.40;;
22250;SDS011;59348;52.158;5.588;2023-05-19T13:46:18;8.25;;;2.70;;
22250;SDS011;59348;52.158;5.588;2023-05-19T13:48:46;4.93;;;2.38;;
22250;SDS011;59348;52.158;5.588;2023-05-19T13:51:13;6.05;;;2.50;;
22250;SDS011;59348;52.158;5.588;2023-05-19T13:53:41;10.82;;;2.38;;
22250;SDS011;59348;52.158;5.588;2023-05-19T13:56:08;8.80;;;2.67;;
22250;SDS011;59348;52.158;5.588;2023-05-19T13:58:39;7.10;;;2.67;;
22250;SDS011;59348;52.158;5.588;2023-05-19T14:01:06;4.93;;;2.30;;
22250;SDS011;59348;52.158;5.588;2023-05-19T14:03:34;7.05;;;2.50;;
22250;SDS011;59348;52.158;5.588;2023-05-19T14:06:03;7.05;;;2.60;;
22250;SDS011;59348;52.158;5.588;2023-05-19T14:08:30;7.70;;;2.45;;
22250;SDS011;59348;52.158;5.588;2023-05-19T14:10:57;7.47;;;2.70;;
22250;SDS011;59348;52.158;5.588;2023-05-19T14:13:24;6.70;;;2.53;;
22250;SDS011;59348;52.158;5.588;2023-05-19T14:15:53;5.32;;;2.67;;
22250;SDS011;59348;52.158;5.588;2023-05-19T14:18:20;8.27;;;2.60;;
22250;SDS011;59348;52.158;5.588;2023-05-19T14:20:48;11.82;;;3.03;;
22250;SDS011;59348;52.158;5.588;2023-05-19T14:23:15;7.70;;;2.80;;
22250;SDS011;59348;52.158;5.588;2023-05-19T14:25:45;5.55;;;2.72;;
22250;SDS011;59348;52.158;5.588;2023-05-19T14:28:12;7.10;;;2.60;;
22250;SDS011;59348;52.158;5.588;2023-05-19T14:30:40;5.68;;;2.50;;
22250;SDS011;59348;52.158;5.588;2023-05-19T14:33:08;9.60;;;3.03;;
22250;SDS011;59348;52.158;5.588;2023-05-19T14:35:35;7.18;;;2.95;;
22250;SDS011;59348;52.158;5.588;2023-05-19T14:38:04;5.65;;;2.50;;
22250;SDS011;59348;52.158;5.588;2023-05-19T14:40:31;9.43;;;2.90;;
22250;SDS011;59348;52.158;5.588;2023-05-19T14:42:58;5.78;;;2.58;;
22250;SDS011;59348;52.158;5.588;2023-05-19T14:45:26;6.90;;;2.40;;
22250;SDS011;59348;52.158;5.588;2023-05-19T14:47:53;6.72;;;2.75;;
22250;SDS011;59348;52.158;5.588;2023-05-19T14:50:22;6.95;;;2.80;;
22250;SDS011;59348;52.158;5.588;2023-05-19T14:52:49;7.53;;;2.67;;